createdAt,value
2022-11-20T00:01:15.301Z,4.20
2022-11-20T00:03:42.954Z,4.20
2022-11-20T00:06:12.719Z,4.10
2022-11-20T00:08:39.993Z,4.10
2022-11-20T00:11:14.298Z,4.10
2022-11-20T00:13:42.784Z,4.10
2022-11-20T00:16:12.695Z,4.10
2022-11-20T00:18:39.604Z,4.10
2022-11-20T00:21:10.978Z,4.10
2022-11-20T00:23:37.873Z,4.10
2022-11-20T00:26:07.674Z,4.00
2022-11-20T00:28:36.606Z,4.00
2022-11-20T00:31:14.943Z,4.00
2022-11-20T00:33:42.941Z,4.00
2022-11-20T00:36:21.202Z,4.00
2022-11-20T00:38:48.414Z,4.00
2022-11-20T00:41:16.964Z,4.00
2022-11-20T00:43:44.400Z,4.00
2022-11-20T00:46:14.912Z,4.00
2022-11-20T00:48:42.275Z,4.10
2022-11-20T00:51:09.471Z,4.10
2022-11-20T00:53:36.374Z,4.10
2022-11-20T00:56:08.675Z,4.10
2022-11-20T00:58:37.478Z,4.10
2022-11-20T01:01:33.047Z,4.10
2022-11-20T01:04:01.481Z,4.10
2022-11-20T01:06:35.402Z,4.10
2022-11-20T01:09:06.244Z,4.10
2022-11-20T01:11:36.378Z,4.10
2022-11-20T01:14:05.374Z,4.10
2022-11-20T01:16:38.154Z,4.10
2022-11-20T01:19:07.646Z,4.10
2022-11-20T01:21:37.490Z,4.10
2022-11-20T01:24:06.103Z,4.10
2022-11-20T01:26:35.176Z,4.20
2022-11-20T01:29:03.612Z,4.20
2022-11-20T01:31:32.698Z,4.30
2022-11-20T01:34:06.214Z,4.30
2022-11-20T01:36:34.727Z,4.30
2022-11-20T01:39:04.135Z,4.30
2022-11-20T01:41:51.481Z,4.40
2022-11-20T01:44:21.856Z,4.40
2022-11-20T01:47:02.027Z,4.40
2022-11-20T01:49:40.132Z,4.40
2022-11-20T01:52:33.778Z,4.40
2022-11-20T01:55:08.361Z,4.40
2022-11-20T01:57:36.655Z,4.40
2022-11-20T02:00:13.876Z,4.40
2022-11-20T02:02:43.937Z,4.40
2022-11-20T02:05:21.653Z,4.40
2022-11-20T02:07:49.540Z,4.40
2022-11-20T02:10:16.694Z,4.40
2022-11-20T02:13:02.573Z,4.40
2022-11-20T02:15:30.566Z,4.40
2022-11-20T02:17:57.682Z,4.40
2022-11-20T02:20:24.658Z,4.40
2022-11-20T02:22:55.903Z,4.40
2022-11-20T02:25:24.906Z,4.50
2022-11-20T02:27:53.069Z,4.50
2022-11-20T02:30:23.166Z,4.40
2022-11-20T02:32:50.013Z,4.40
2022-11-20T02:35:19.952Z,4.40
2022-11-20T02:37:49.829Z,4.40
2022-11-20T02:40:17.036Z,4.40
2022-11-20T02:42:43.912Z,4.40
2022-11-20T02:45:11.061Z,4.40
2022-11-20T02:47:37.959Z,4.40
2022-11-20T02:50:06.140Z,4.40
2022-11-20T02:52:33.099Z,4.40
2022-11-20T02:55:01.954Z,4.40
2022-11-20T02:57:29.104Z,4.40
2022-11-20T02:59:55.970Z,4.40
2022-11-20T03:02:22.849Z,4.40
2022-11-20T03:04:49.680Z,4.40
2022-11-20T03:07:16.923Z,4.40
2022-11-20T03:09:43.787Z,4.50
2022-11-20T03:12:10.682Z,4.50
2022-11-20T03:14:37.525Z,4.50
2022-11-20T03:17:04.364Z,4.50
2022-11-20T03:19:31.397Z,4.50
2022-11-20T03:21:59.298Z,4.50
2022-11-20T03:24:26.250Z,4.50
2022-11-20T03:26:56.169Z,4.50
2022-11-20T03:29:23.349Z,4.50
2022-11-20T03:31:50.446Z,4.50
2022-11-20T03:34:17.330Z,4.50
2022-11-20T03:36:44.637Z,4.50
2022-11-20T03:39:11.883Z,4.40
2022-11-20T03:41:40.768Z,4.40
2022-11-20T03:44:09.717Z,4.40
2022-11-20T03:46:37.160Z,4.40
2022-11-20T03:49:04.610Z,4.50
2022-11-20T03:51:33.783Z,4.50
2022-11-20T03:54:04.126Z,4.50
2022-11-20T03:56:33.221Z,4.50
2022-11-20T03:59:00.155Z,4.50
2022-11-20T04:01:30.443Z,4.50
2022-11-20T04:03:58.349Z,4.50
2022-11-20T04:06:26.702Z,4.50
2022-11-20T04:08:56.557Z,4.50
2022-11-20T04:11:25.906Z,4.50
2022-11-20T04:13:55.053Z,4.50
2022-11-20T04:16:22.803Z,4.50
2022-11-20T04:18:57.212Z,4.40
2022-11-20T04:21:25.391Z,4.40
2022-11-20T04:23:56.828Z,4.50
2022-11-20T04:26:28.472Z,4.50
2022-11-20T04:28:55.546Z,4.40
2022-11-20T04:31:28.579Z,4.40
2022-11-20T04:33:55.697Z,4.40
2022-11-20T04:36:25.533Z,4.30
2022-11-20T04:38:56.846Z,4.30
2022-11-20T04:41:29.355Z,4.30
2022-11-20T04:44:00.881Z,4.20
2022-11-20T04:46:29.082Z,4.20
2022-11-20T04:48:56.110Z,4.20
2022-11-20T04:51:23.360Z,4.10
2022-11-20T04:53:50.334Z,4.10
2022-11-20T04:56:17.617Z,4.10
2022-11-20T04:58:44.746Z,4.10
2022-11-20T05:01:14.357Z,4.10
2022-11-20T05:03:42.963Z,4.10
2022-11-20T05:06:12.161Z,4.10
2022-11-20T05:08:41.960Z,4.10
2022-11-20T05:11:15.395Z,4.10
2022-11-20T05:13:42.701Z,4.10
2022-11-20T05:16:12.613Z,4.10
2022-11-20T05:18:40.076Z,4.10
2022-11-20T05:21:08.327Z,4.10
2022-11-20T05:23:35.952Z,4.20
2022-11-20T05:26:03.439Z,4.20
2022-11-20T05:28:32.781Z,4.20
2022-11-20T05:31:23.393Z,4.20
2022-11-20T05:33:53.336Z,4.30
2022-11-20T05:36:20.247Z,4.30
2022-11-20T05:38:50.334Z,4.30
2022-11-20T05:41:20.198Z,4.30
2022-11-20T05:43:49.244Z,4.40
2022-11-20T05:46:22.297Z,4.40
2022-11-20T05:48:52.148Z,4.40
2022-11-20T05:51:19.964Z,4.40
2022-11-20T05:53:48.692Z,4.50
2022-11-20T05:56:19.081Z,4.50
2022-11-20T05:58:46.763Z,4.50
2022-11-20T06:01:20.031Z,4.60
2022-11-20T06:03:48.592Z,4.60
2022-11-20T06:06:17.095Z,4.60
2022-11-20T06:08:44.904Z,4.60
2022-11-20T06:11:13.727Z,4.60
2022-11-20T06:13:42.612Z,4.70
2022-11-20T06:16:11.116Z,4.70
2022-11-20T06:18:38.562Z,4.70
2022-11-20T06:21:11.088Z,4.70
2022-11-20T06:23:38.585Z,4.70
2022-11-20T06:26:14.161Z,4.70
2022-11-20T06:28:43.449Z,4.70
2022-11-20T06:31:14.528Z,4.70
2022-11-20T06:33:42.361Z,4.80
2022-11-20T06:36:11.351Z,4.80
2022-11-20T06:38:39.173Z,4.80
2022-11-20T06:41:14.512Z,4.80
2022-11-20T06:43:44.879Z,4.80
2022-11-20T06:46:15.475Z,4.90
2022-11-20T06:48:44.646Z,4.90
2022-11-20T06:51:11.639Z,4.90
2022-11-20T06:53:39.078Z,5.00
2022-11-20T06:56:12.031Z,5.00
2022-11-20T06:58:39.227Z,5.00
2022-11-20T07:01:11.323Z,5.00
2022-11-20T07:03:42.301Z,5.00
2022-11-20T07:06:12.486Z,5.10
2022-11-20T07:08:40.417Z,5.10
2022-11-20T07:11:08.449Z,5.10
2022-11-20T07:13:35.536Z,5.10
2022-11-20T07:16:08.250Z,5.20
2022-11-20T07:18:38.428Z,5.20
2022-11-20T07:21:11.794Z,5.20
2022-11-20T07:23:39.688Z,5.20
2022-11-20T07:26:09.838Z,5.30
2022-11-20T07:28:39.963Z,5.30
2022-11-20T07:31:08.669Z,5.30
2022-11-20T07:33:36.555Z,5.30
2022-11-20T07:36:03.952Z,5.30
2022-11-20T07:38:33.890Z,5.30
2022-11-20T07:41:04.012Z,5.30
2022-11-20T07:43:31.166Z,5.30
2022-11-20T07:45:59.974Z,5.30
2022-11-20T07:48:27.299Z,5.30
2022-11-20T07:51:00.460Z,5.30
2022-11-20T07:53:30.483Z,5.30
2022-11-20T07:56:02.416Z,5.30
2022-11-20T07:58:31.368Z,5.40
2022-11-20T08:01:09.160Z,5.40
2022-11-20T08:03:40.924Z,5.40
2022-11-20T08:06:14.012Z,5.40
2022-11-20T08:08:43.111Z,5.40
2022-11-20T08:11:31.647Z,5.40
2022-11-20T08:14:14.615Z,5.40
2022-11-20T08:16:46.544Z,5.40
2022-11-20T08:19:19.386Z,5.50
2022-11-20T08:21:49.489Z,5.50
2022-11-20T08:24:16.490Z,5.50
2022-11-20T08:26:46.658Z,5.50
2022-11-20T08:29:15.540Z,5.50
2022-11-20T08:31:44.665Z,5.50
2022-11-20T08:34:18.809Z,5.50
2022-11-20T08:36:49.187Z,5.60
2022-11-20T08:39:16.210Z,5.60
2022-11-20T08:41:43.186Z,5.60
2022-11-20T08:44:10.243Z,5.60
2022-11-20T08:46:42.706Z,5.70
2022-11-20T08:49:12.018Z,5.70
2022-11-20T08:51:42.970Z,5.70
2022-11-20T08:54:13.003Z,5.80
2022-11-20T08:56:42.984Z,5.80
2022-11-20T08:59:50.894Z,5.80
2022-11-20T09:02:02.135Z,5.80
2022-11-20T09:04:29.500Z,5.90
2022-11-20T09:06:56.463Z,6.00
2022-11-20T09:09:26.522Z,6.00
2022-11-20T09:11:53.835Z,6.00
2022-11-20T09:14:25.811Z,6.10
2022-11-20T09:16:54.809Z,6.10
2022-11-20T09:19:40.880Z,6.10
2022-11-20T09:22:09.263Z,6.20
2022-11-20T09:24:36.667Z,6.20
2022-11-20T09:27:06.025Z,6.30
2022-11-20T09:29:45.209Z,6.30
2022-11-20T09:32:12.112Z,6.40
2022-11-20T09:34:40.080Z,6.50
2022-11-20T09:37:09.026Z,6.50
2022-11-20T09:39:40.014Z,6.60
2022-11-20T09:42:34.980Z,6.60
2022-11-20T09:45:13.805Z,6.60
2022-11-20T09:48:00.262Z,6.70
2022-11-20T09:51:15.342Z,6.70
2022-11-20T09:54:16.369Z,6.70
2022-11-20T09:56:47.147Z,6.70
2022-11-20T09:59:23.339Z,6.80
2022-11-20T10:01:51.005Z,6.90
2022-11-20T10:04:22.174Z,6.90
2022-11-20T10:10:00.537Z,7.20
2022-11-20T10:12:47.899Z,7.30
2022-11-20T10:16:05.940Z,7.30
2022-11-20T10:18:54.806Z,7.50
2022-11-20T10:21:24.763Z,7.50
2022-11-20T10:24:13.668Z,7.50
2022-11-20T10:27:09.834Z,7.60
2022-11-20T10:29:41.158Z,7.70
2022-11-20T10:32:21.237Z,7.70
2022-11-20T10:34:59.674Z,7.80
2022-11-20T10:37:32.467Z,7.80
2022-11-20T10:40:11.337Z,7.90
2022-11-20T10:42:58.198Z,8.00
2022-11-20T10:45:46.113Z,8.00
2022-11-20T10:48:18.378Z,8.20
2022-11-20T10:50:55.657Z,8.30
2022-11-20T10:53:42.352Z,8.50
2022-11-20T10:56:29.012Z,8.70
2022-11-20T10:59:13.403Z,8.80
2022-11-20T11:01:44.061Z,8.90
2022-11-20T11:04:25.989Z,8.90
2022-11-20T11:06:56.101Z,9.00
2022-11-20T11:09:34.130Z,9.00
2022-11-20T11:12:06.767Z,9.00
2022-11-20T11:14:46.924Z,8.90
2022-11-20T11:17:24.636Z,8.90
2022-11-20T11:20:20.480Z,8.90
2022-11-20T11:22:53.651Z,8.90
2022-11-20T11:25:36.801Z,8.80
2022-11-20T11:28:22.447Z,8.80
2022-11-20T11:30:52.105Z,8.70
2022-11-20T11:33:34.852Z,8.70
2022-11-20T11:36:04.645Z,8.70
2022-11-20T11:38:44.239Z,8.70
2022-11-20T11:41:17.674Z,8.70
2022-11-20T11:44:24.130Z,8.70
2022-11-20T11:46:56.530Z,8.70
2022-11-20T11:49:26.662Z,8.70
2022-11-20T11:52:22.521Z,8.70
2022-11-20T11:55:11.567Z,8.70
2022-11-20T11:57:47.970Z,8.70
2022-11-20T12:00:16.420Z,8.70
2022-11-20T12:02:55.779Z,8.60
2022-11-20T12:05:25.745Z,8.60
2022-11-20T12:07:58.748Z,8.60
2022-11-20T12:11:00.518Z,8.50
2022-11-20T12:13:40.610Z,8.50
2022-11-20T12:16:15.030Z,8.40
2022-11-20T12:18:47.156Z,8.40
2022-11-20T12:21:40.307Z,8.40
2022-11-20T12:24:27.042Z,8.30
2022-11-20T12:27:15.126Z,8.30
2022-11-20T12:29:56.002Z,8.30
2022-11-20T12:33:02.991Z,8.30
2022-11-20T12:35:57.478Z,8.30
2022-11-20T12:38:56.406Z,8.30
2022-11-20T12:42:22.180Z,8.30
2022-11-20T12:45:21.599Z,8.30
2022-11-20T12:48:04.487Z,8.30
2022-11-20T12:50:42.821Z,8.30
2022-11-20T12:53:54.157Z,8.30
2022-11-20T12:56:44.368Z,8.30
2022-11-20T12:59:22.737Z,8.40
2022-11-20T13:02:01.837Z,8.40
2022-11-20T13:04:35.651Z,8.50
2022-11-20T13:07:10.457Z,8.50
2022-11-20T13:09:49.893Z,8.60
2022-11-20T13:12:26.050Z,8.60
2022-11-20T13:15:07.286Z,8.70
2022-11-20T13:17:48.689Z,8.70
2022-11-20T13:20:18.489Z,8.70
2022-11-20T13:23:01.312Z,8.80
2022-11-20T13:25:34.345Z,8.80
2022-11-20T13:28:10.285Z,8.80
2022-11-20T13:30:51.610Z,8.80
2022-11-20T13:33:39.182Z,8.80
2022-11-20T13:36:28.616Z,8.80
2022-11-20T13:38:57.542Z,8.80
2022-11-20T13:41:43.693Z,8.80
2022-11-20T13:44:16.277Z,8.80
2022-11-20T13:46:48.045Z,8.80
2022-11-20T13:49:44.848Z,8.80
2022-11-20T13:52:35.005Z,8.80
2022-11-20T13:55:43.825Z,8.90
2022-11-20T13:58:36.978Z,8.90
2022-11-20T14:01:22.603Z,8.90
2022-11-20T14:04:05.699Z,9.00
2022-11-20T14:06:44.690Z,9.10
2022-11-20T14:09:27.218Z,9.10
2022-11-20T14:11:54.245Z,9.20
2022-11-20T14:14:24.030Z,9.40
2022-11-20T14:16:54.518Z,9.80
2022-11-20T14:19:26.733Z,10.10
2022-11-20T14:21:56.325Z,10.20
2022-11-20T14:24:25.867Z,10.30
2022-11-20T14:26:54.170Z,10.50
2022-11-20T14:29:30.822Z,10.60
2022-11-20T14:32:00.099Z,10.60
2022-11-20T14:34:31.894Z,10.50
2022-11-20T14:37:03.329Z,10.60
2022-11-20T14:39:39.162Z,10.60
2022-11-20T14:42:32.901Z,10.60
2022-11-20T14:45:04.192Z,10.70
2022-11-20T14:47:32.700Z,10.60
2022-11-20T14:50:08.672Z,10.60
2022-11-20T14:52:36.950Z,10.60
2022-11-20T14:55:04.150Z,10.60
2022-11-20T14:57:37.975Z,10.60
2022-11-20T15:00:22.916Z,10.60
2022-11-20T15:02:51.826Z,10.60
2022-11-20T15:05:21.822Z,10.60
2022-11-20T15:08:06.453Z,10.60
2022-11-20T15:10:36.342Z,10.60
2022-11-20T15:13:37.762Z,10.50
2022-11-20T15:16:21.645Z,10.50
2022-11-20T15:18:49.063Z,10.50
2022-11-20T15:21:22.255Z,10.50
2022-11-20T15:23:49.763Z,10.50
2022-11-20T15:26:29.078Z,10.50
2022-11-20T15:28:59.605Z,10.50
2022-11-20T15:31:29.658Z,10.50
2022-11-20T15:33:56.592Z,10.50
2022-11-20T15:36:25.482Z,10.50
2022-11-20T15:38:52.668Z,10.40
2022-11-20T15:41:21.619Z,10.40
2022-11-20T15:43:49.552Z,10.40
2022-11-20T15:46:27.866Z,10.40
2022-11-20T15:49:03.886Z,10.40
2022-11-20T15:51:34.667Z,10.40
2022-11-20T15:54:11.962Z,10.40
2022-11-20T15:56:39.102Z,10.40
2022-11-20T15:59:07.265Z,10.40
2022-11-20T16:01:37.515Z,10.40
2022-11-20T16:04:06.774Z,10.30
2022-11-20T16:06:36.766Z,10.30
2022-11-20T16:09:07.125Z,10.30
2022-11-20T16:11:39.922Z,10.30
2022-11-20T16:14:30.712Z,10.30
2022-11-20T16:17:04.137Z,10.30
2022-11-20T16:19:34.219Z,10.30
2022-11-20T16:22:03.351Z,10.30
2022-11-20T16:24:33.446Z,10.30
2022-11-20T16:27:04.083Z,10.30
2022-11-20T16:29:34.023Z,10.30
2022-11-20T16:32:04.103Z,10.30
2022-11-20T16:34:31.124Z,10.30
2022-11-20T16:36:59.962Z,10.30
2022-11-20T16:39:28.149Z,10.30
2022-11-20T16:41:58.252Z,10.30
2022-11-20T16:44:31.213Z,10.30
2022-11-20T16:47:00.027Z,10.30
2022-11-20T16:49:30.147Z,10.30
2022-11-20T16:52:00.105Z,10.30
2022-11-20T16:54:28.272Z,10.20
2022-11-20T16:56:56.419Z,10.30
2022-11-20T16:59:24.373Z,10.30
2022-11-20T17:01:51.351Z,10.30
2022-11-20T17:04:18.294Z,10.30
2022-11-20T17:06:45.848Z,10.30
2022-11-20T17:09:13.993Z,10.30
2022-11-20T17:11:44.118Z,10.30
2022-11-20T17:14:13.274Z,10.30
2022-11-20T17:16:43.059Z,10.30
2022-11-20T17:19:14.801Z,10.30
2022-11-20T17:21:44.817Z,10.30
2022-11-20T17:24:13.319Z,10.20
2022-11-20T17:26:44.496Z,10.30
2022-11-20T17:29:16.863Z,10.30
2022-11-20T17:31:45.313Z,10.30
2022-11-20T17:34:14.301Z,10.30
2022-11-20T17:36:45.957Z,10.30
2022-11-20T17:39:17.901Z,10.30
2022-11-20T17:42:07.766Z,10.30
2022-11-20T17:44:42.694Z,10.20
2022-11-20T17:47:12.849Z,10.20
2022-11-20T17:49:43.020Z,10.20
2022-11-20T17:52:12.960Z,10.20
2022-11-20T17:54:43.004Z,10.20
2022-11-20T17:57:31.424Z,10.20
2022-11-20T18:00:04.885Z,10.20
2022-11-20T18:02:34.734Z,10.30
2022-11-20T18:05:05.086Z,10.30
2022-11-20T18:07:41.935Z,10.30
2022-11-20T18:10:11.489Z,10.30
2022-11-20T18:12:38.643Z,10.30
2022-11-20T18:15:05.753Z,10.30
2022-11-20T18:17:32.629Z,10.30
2022-11-20T18:20:28.560Z,10.40
2022-11-20T18:22:46.423Z,10.40
2022-11-20T18:25:13.283Z,10.40
2022-11-20T18:27:41.438Z,10.40
2022-11-20T18:30:09.939Z,10.30
2022-11-20T18:32:37.837Z,10.30
2022-11-20T18:35:05.282Z,10.30
2022-11-20T18:37:32.612Z,10.30
2022-11-20T18:39:59.610Z,10.30
2022-11-20T18:42:44.920Z,10.30
2022-11-20T18:45:11.874Z,10.30
2022-11-20T18:47:40.190Z,10.30
2022-11-20T18:50:09.188Z,10.30
2022-11-20T18:52:42.165Z,10.30
2022-11-20T18:55:09.607Z,10.30
2022-11-20T18:57:37.201Z,10.30
2022-11-20T19:00:09.248Z,10.40
2022-11-20T19:02:41.576Z,10.40
2022-11-20T19:05:12.402Z,10.40
2022-11-20T19:07:39.372Z,10.40
2022-11-20T19:10:06.762Z,10.30
2022-11-20T19:12:33.677Z,10.30
2022-11-20T19:15:00.627Z,10.30
2022-11-20T19:17:27.480Z,10.30
2022-11-20T19:19:55.411Z,10.30
2022-11-20T19:22:22.588Z,10.30
2022-11-20T19:24:49.724Z,10.30
2022-11-20T19:27:16.671Z,10.20
2022-11-20T19:29:43.626Z,10.30
2022-11-20T19:32:10.553Z,10.30
2022-11-20T19:34:38.427Z,10.30
2022-11-20T19:37:05.411Z,10.30
2022-11-20T19:39:32.419Z,10.30
2022-11-20T19:41:59.308Z,10.30
2022-11-20T19:44:26.283Z,10.30
2022-11-20T19:46:53.216Z,10.30
2022-11-20T19:49:20.058Z,10.30
2022-11-20T19:51:49.073Z,10.30
2022-11-20T19:54:16.953Z,10.30
2022-11-20T19:56:45.303Z,10.30
2022-11-20T19:59:12.551Z,10.30
2022-11-20T20:01:40.062Z,10.30
2022-11-20T20:04:07.280Z,10.30
2022-11-20T20:06:36.248Z,10.40
2022-11-20T20:09:13.571Z,10.40
2022-11-20T20:11:40.910Z,10.40
2022-11-20T20:14:10.778Z,10.30
2022-11-20T20:16:37.760Z,10.30
2022-11-20T20:19:05.533Z,10.30
2022-11-20T20:21:35.130Z,10.30
2022-11-20T20:24:02.731Z,10.30
2022-11-20T20:26:31.296Z,10.30
2022-11-20T20:28:58.691Z,10.20
2022-11-20T20:31:28.434Z,10.20
2022-11-20T20:33:56.183Z,10.20
2022-11-20T20:36:24.696Z,10.20
2022-11-20T20:38:56.259Z,10.20
2022-11-20T20:41:25.082Z,10.30
2022-11-20T20:44:11.070Z,10.30
2022-11-20T20:46:38.002Z,10.30
2022-11-20T20:49:05.020Z,10.20
2022-11-20T20:51:31.913Z,10.20
2022-11-20T20:53:59.458Z,10.20
2022-11-20T20:56:26.564Z,10.20
2022-11-20T20:58:53.701Z,10.20
2022-11-20T21:01:22.755Z,10.30
2022-11-20T21:03:49.783Z,10.30
2022-11-20T21:06:16.695Z,10.30
2022-11-20T21:08:44.588Z,10.30
2022-11-20T21:11:18.122Z,10.40
2022-11-20T21:13:47.509Z,10.40
2022-11-20T21:16:15.777Z,10.40
2022-11-20T21:18:42.717Z,10.40
2022-11-20T21:21:31.711Z,10.40
2022-11-20T21:23:58.706Z,10.40
2022-11-20T21:26:25.673Z,10.40
2022-11-20T21:28:52.816Z,10.30
2022-11-20T21:31:22.472Z,10.30
2022-11-20T21:33:51.306Z,10.30
2022-11-20T21:36:24.166Z,10.30
2022-11-20T21:38:52.634Z,10.40
2022-11-20T21:41:19.722Z,10.40
2022-11-20T21:44:09.158Z,10.40
2022-11-20T21:46:38.329Z,10.30
2022-11-20T21:49:05.735Z,10.30
2022-11-20T21:51:34.526Z,10.30
2022-11-20T21:54:01.399Z,10.30
2022-11-20T21:56:28.552Z,10.30
2022-11-20T21:58:56.006Z,10.30
2022-11-20T22:01:29.226Z,10.20
2022-11-20T22:03:58.561Z,10.20
2022-11-20T22:06:29.505Z,10.20
2022-11-20T22:08:56.355Z,10.10
2022-11-20T22:11:23.262Z,10.00
2022-11-20T22:14:09.033Z,10.00
2022-11-20T22:16:37.669Z,10.00
2022-11-20T22:19:05.421Z,9.90
2022-11-20T22:21:33.230Z,9.90
2022-11-20T22:24:00.327Z,9.90
2022-11-20T22:26:29.525Z,9.80
2022-11-20T22:28:58.532Z,9.80
2022-11-20T22:31:30.109Z,9.90
2022-11-20T22:33:58.069Z,9.90
2022-11-20T22:36:28.432Z,9.90
2022-11-20T22:38:56.218Z,10.00
2022-11-20T22:41:28.243Z,10.00
2022-11-20T22:43:56.972Z,10.00
2022-11-20T22:46:25.260Z,10.00
2022-11-20T22:48:55.858Z,10.00
2022-11-20T22:51:25.357Z,10.00
2022-11-20T22:53:52.527Z,10.00
2022-11-20T22:56:19.594Z,10.00
2022-11-20T22:58:49.369Z,10.00
2022-11-20T23:01:19.099Z,9.90
2022-11-20T23:03:48.506Z,9.80
2022-11-20T23:06:17.286Z,9.80
2022-11-20T23:08:45.091Z,9.70
2022-11-20T23:11:14.312Z,9.60
2022-11-20T23:13:42.208Z,9.60
2022-11-20T23:16:11.215Z,9.60
2022-11-20T23:18:38.683Z,9.60
2022-11-20T23:21:13.118Z,9.60
2022-11-20T23:23:40.753Z,9.60
2022-11-20T23:26:09.773Z,9.60
2022-11-20T23:28:37.381Z,9.60
2022-11-20T23:31:05.082Z,9.60
2022-11-20T23:33:34.833Z,9.60
2022-11-20T23:36:01.794Z,9.60
2022-11-20T23:38:28.727Z,9.60
2022-11-20T23:40:55.604Z,9.60
2022-11-20T23:43:22.886Z,9.60
2022-11-20T23:45:55.925Z,9.60
2022-11-20T23:48:25.185Z,9.60
2022-11-20T23:50:52.441Z,9.60
2022-11-20T23:53:19.708Z,9.60
2022-11-20T23:55:49.654Z,9.60
2022-11-20T23:58:17.150Z,9.60
